sensor_id;sensor_type;location;lat;lon;timestamp;temperature;humidity
19496;DHT22;9888;48.606;9.630;2023-09-19T00:02:03;15.10;99.90
19496;DHT22;9888;48.606;9.630;2023-09-19T00:04:37;15.10;99.90
19496;DHT22;9888;48.606;9.630;2023-09-19T00:07:17;15.10;99.90
19496;DHT22;9888;48.606;9.630;2023-09-19T00:09:45;15.00;99.90
19496;DHT22;9888;48.606;9.630;2023-09-19T00:19:04;14.80;99.90
19496;DHT22;9888;48.606;9.630;2023-09-19T00:21:38;14.80;99.90
19496;DHT22;9888;48.606;9.630;2023-09-19T00:24:09;14.70;99.90
19496;DHT22;9888;48.606;9.630;2023-09-19T00:26:38;14.70;99.90
19496;DHT22;9888;48.606;9.630;2023-09-19T00:29:07;14.70;99.90
19496;DHT22;9888;48.606;9.630;2023-09-19T00:31:38;14.70;99.90
19496;DHT22;9888;48.606;9.630;2023-09-19T00:34:08;14.60;99.90
19496;DHT22;9888;48.606;9.630;2023-09-19T00:36:41;14.60;99.90
19496;DHT22;9888;48.606;9.630;2023-09-19T00:39:13;14.60;99.90
19496;DHT22;9888;48.606;9.630;2023-09-19T00:41:42;14.60;99.90
19496;DHT22;9888;48.606;9.630;2023-09-19T00:44:12;14.60;99.90
19496;DHT22;9888;48.606;9.630;2023-09-19T00:46:42;14.60;99.90
19496;DHT22;9888;48.606;9.630;2023-09-19T00:52:55;14.50;99.90
19496;DHT22;9888;48.606;9.630;2023-09-19T00:55:25;14.50;99.90
19496;DHT22;9888;48.606;9.630;2023-09-19T00:58:04;14.50;99.90
19496;DHT22;9888;48.606;9.630;2023-09-19T01:00:34;14.50;99.90
19496;DHT22;9888;48.606;9.630;2023-09-19T01:03:03;14.40;99.90
19496;DHT22;9888;48.606;9.630;2023-09-19T01:05:31;14.40;99.90
19496;DHT22;9888;48.606;9.630;2023-09-19T01:07:59;14.50;99.90
19496;DHT22;9888;48.606;9.630;2023-09-19T01:10:27;14.50;99.90
19496;DHT22;9888;48.606;9.630;2023-09-19T01:16:11;14.50;99.90
19496;DHT22;9888;48.606;9.630;2023-09-19T01:19:28;14.60;99.90
19496;DHT22;9888;48.606;9.630;2023-09-19T01:22:21;14.60;99.90
19496;DHT22;9888;48.606;9.630;2023-09-19T01:25:20;14.60;99.90
19496;DHT22;9888;48.606;9.630;2023-09-19T01:30:54;14.50;99.90
19496;DHT22;9888;48.606;9.630;2023-09-19T01:33:28;14.60;99.90
19496;DHT22;9888;48.606;9.630;2023-09-19T01:36:02;14.50;99.90
19496;DHT22;9888;48.606;9.630;2023-09-19T01:38:30;14.60;99.90
19496;DHT22;9888;48.606;9.630;2023-09-19T01:41:09;14.60;99.90
19496;DHT22;9888;48.606;9.630;2023-09-19T01:43:43;14.60;99.90
19496;DHT22;9888;48.606;9.630;2023-09-19T01:50:13;14.70;99.90
19496;DHT22;9888;48.606;9.630;2023-09-19T01:52:53;14.70;99.90
19496;DHT22;9888;48.606;9.630;2023-09-19T01:55:22;14.60;99.90
19496;DHT22;9888;48.606;9.630;2023-09-19T02:04:13;14.60;99.90
19496;DHT22;9888;48.606;9.630;2023-09-19T02:06:45;14.60;99.90
19496;DHT22;9888;48.606;9.630;2023-09-19T02:09:16;14.60;99.90
19496;DHT22;9888;48.606;9.630;2023-09-19T02:11:44;14.60;99.90
19496;DHT22;9888;48.606;9.630;2023-09-19T02:14:12;14.60;99.90
19496;DHT22;9888;48.606;9.630;2023-09-19T02:16:40;14.50;99.90
19496;DHT22;9888;48.606;9.630;2023-09-19T02:19:08;14.60;99.90
19496;DHT22;9888;48.606;9.630;2023-09-19T02:21:36;14.60;99.90
19496;DHT22;9888;48.606;9.630;2023-09-19T02:24:08;14.60;99.90
19496;DHT22;9888;48.606;9.630;2023-09-19T02:26:37;14.60;99.90
19496;DHT22;9888;48.606;9.630;2023-09-19T02:29:05;14.60;99.90
19496;DHT22;9888;48.606;9.630;2023-09-19T02:31:33;14.60;99.90
19496;DHT22;9888;48.606;9.630;2023-09-19T02:34:00;14.60;99.90
19496;DHT22;9888;48.606;9.630;2023-09-19T02:36:28;14.60;99.90
19496;DHT22;9888;48.606;9.630;2023-09-19T02:38:58;14.60;99.90
19496;DHT22;9888;48.606;9.630;2023-09-19T02:41:25;14.60;99.90
19496;DHT22;9888;48.606;9.630;2023-09-19T02:43:57;14.60;99.90
19496;DHT22;9888;48.606;9.630;2023-09-19T02:49:33;14.70;99.90
19496;DHT22;9888;48.606;9.630;2023-09-19T02:52:02;14.70;99.90
19496;DHT22;9888;48.606;9.630;2023-09-19T02:54:31;14.70;99.90
19496;DHT22;9888;48.606;9.630;2023-09-19T02:56:59;14.60;99.90
19496;DHT22;9888;48.606;9.630;2023-09-19T02:59:27;14.60;99.90
19496;DHT22;9888;48.606;9.630;2023-09-19T03:02:28;14.60;99.90
19496;DHT22;9888;48.606;9.630;2023-09-19T03:05:01;14.60;99.90
19496;DHT22;9888;48.606;9.630;2023-09-19T03:07:31;14.60;99.90
19496;DHT22;9888;48.606;9.630;2023-09-19T03:09:58;14.60;99.90
19496;DHT22;9888;48.606;9.630;2023-09-19T03:12:27;14.70;99.90
19496;DHT22;9888;48.606;9.630;2023-09-19T03:14:55;14.60;99.90
19496;DHT22;9888;48.606;9.630;2023-09-19T03:17:23;14.60;99.90
19496;DHT22;9888;48.606;9.630;2023-09-19T03:19:57;14.50;99.90
19496;DHT22;9888;48.606;9.630;2023-09-19T03:22:27;14.50;99.90
19496;DHT22;9888;48.606;9.630;2023-09-19T03:24:55;14.50;99.90
19496;DHT22;9888;48.606;9.630;2023-09-19T03:27:24;14.50;99.90
19496;DHT22;9888;48.606;9.630;2023-09-19T03:29:52;14.50;99.90
19496;DHT22;9888;48.606;9.630;2023-09-19T03:32:21;14.40;99.90
19496;DHT22;9888;48.606;9.630;2023-09-19T03:34:48;14.40;99.90
19496;DHT22;9888;48.606;9.630;2023-09-19T03:37:16;14.40;99.90
19496;DHT22;9888;48.606;9.630;2023-09-19T03:39:44;14.30;99.90
19496;DHT22;9888;48.606;9.630;2023-09-19T03:42:11;14.50;99.90
19496;DHT22;9888;48.606;9.630;2023-09-19T03:44:39;14.50;99.90
19496;DHT22;9888;48.606;9.630;2023-09-19T03:47:07;14.60;99.90
19496;DHT22;9888;48.606;9.630;2023-09-19T03:49:35;14.70;99.90
19496;DHT22;9888;48.606;9.630;2023-09-19T03:52:03;14.80;99.90
19496;DHT22;9888;48.606;9.630;2023-09-19T03:55:05;14.90;99.90
19496;DHT22;9888;48.606;9.630;2023-09-19T04:04:20;14.90;99.90
19496;DHT22;9888;48.606;9.630;2023-09-19T04:06:47;14.90;99.90
19496;DHT22;9888;48.606;9.630;2023-09-19T04:09:16;15.00;99.90
19496;DHT22;9888;48.606;9.630;2023-09-19T04:11:43;15.00;99.90
19496;DHT22;9888;48.606;9.630;2023-09-19T04:14:11;15.10;99.90
19496;DHT22;9888;48.606;9.630;2023-09-19T04:16:45;15.10;99.90
19496;DHT22;9888;48.606;9.630;2023-09-19T04:19:14;15.10;99.90
19496;DHT22;9888;48.606;9.630;2023-09-19T04:21:53;15.10;99.90
19496;DHT22;9888;48.606;9.630;2023-09-19T04:24:21;15.10;99.90
19496;DHT22;9888;48.606;9.630;2023-09-19T04:26:49;15.20;99.90
19496;DHT22;9888;48.606;9.630;2023-09-19T04:29:25;15.20;99.90
19496;DHT22;9888;48.606;9.630;2023-09-19T04:32:03;15.20;99.90
19496;DHT22;9888;48.606;9.630;2023-09-19T04:34:31;15.20;99.90
19496;DHT22;9888;48.606;9.630;2023-09-19T04:37:07;15.10;99.90
19496;DHT22;9888;48.606;9.630;2023-09-19T04:39:35;15.10;99.90
19496;DHT22;9888;48.606;9.630;2023-09-19T04:42:02;15.10;99.90
19496;DHT22;9888;48.606;9.630;2023-09-19T04:44:31;15.00;99.90
19496;DHT22;9888;48.606;9.630;2023-09-19T04:47:00;15.00;99.90
19496;DHT22;9888;48.606;9.630;2023-09-19T04:49:29;15.00;99.90
19496;DHT22;9888;48.606;9.630;2023-09-19T04:51:56;15.00;99.90
19496;DHT22;9888;48.606;9.630;2023-09-19T04:54:25;14.90;99.90
19496;DHT22;9888;48.606;9.630;2023-09-19T04:56:56;14.80;99.90
19496;DHT22;9888;48.606;9.630;2023-09-19T04:59:27;14.80;99.90
19496;DHT22;9888;48.606;9.630;2023-09-19T05:01:55;14.70;99.90
19496;DHT22;9888;48.606;9.630;2023-09-19T05:04:22;14.60;99.90
19496;DHT22;9888;48.606;9.630;2023-09-19T05:06:50;14.60;99.90
19496;DHT22;9888;48.606;9.630;2023-09-19T05:09:17;14.50;99.90
19496;DHT22;9888;48.606;9.630;2023-09-19T05:11:47;14.50;99.90
19496;DHT22;9888;48.606;9.630;2023-09-19T05:14:15;14.50;99.90
19496;DHT22;9888;48.606;9.630;2023-09-19T05:16:44;14.50;99.90
19496;DHT22;9888;48.606;9.630;2023-09-19T05:19:12;14.40;99.90
19496;DHT22;9888;48.606;9.630;2023-09-19T05:21:43;14.30;99.90
19496;DHT22;9888;48.606;9.630;2023-09-19T05:24:10;14.30;99.90
19496;DHT22;9888;48.606;9.630;2023-09-19T05:26:44;14.40;99.90
19496;DHT22;9888;48.606;9.630;2023-09-19T05:29:12;14.40;99.90
19496;DHT22;9888;48.606;9.630;2023-09-19T05:31:43;14.50;99.90
19496;DHT22;9888;48.606;9.630;2023-09-19T05:34:12;14.60;99.90
19496;DHT22;9888;48.606;9.630;2023-09-19T05:36:40;14.70;99.90
19496;DHT22;9888;48.606;9.630;2023-09-19T05:42:33;15.00;99.90
19496;DHT22;9888;48.606;9.630;2023-09-19T05:45:03;15.10;99.90
19496;DHT22;9888;48.606;9.630;2023-09-19T05:47:34;15.20;99.90
19496;DHT22;9888;48.606;9.630;2023-09-19T05:50:04;15.30;99.90
19496;DHT22;9888;48.606;9.630;2023-09-19T05:52:32;15.40;99.90
19496;DHT22;9888;48.606;9.630;2023-09-19T05:55:00;15.50;99.90
19496;DHT22;9888;48.606;9.630;2023-09-19T05:57:30;15.50;99.90
19496;DHT22;9888;48.606;9.630;2023-09-19T05:59:59;15.50;99.90
19496;DHT22;9888;48.606;9.630;2023-09-19T06:02:31;15.50;99.90
19496;DHT22;9888;48.606;9.630;2023-09-19T06:05:13;15.50;99.90
19496;DHT22;9888;48.606;9.630;2023-09-19T06:07:42;15.30;99.90
19496;DHT22;9888;48.606;9.630;2023-09-19T06:10:13;15.30;99.90
19496;DHT22;9888;48.606;9.630;2023-09-19T06:12:43;15.20;99.90
19496;DHT22;9888;48.606;9.630;2023-09-19T06:15:12;15.10;99.90
19496;DHT22;9888;48.606;9.630;2023-09-19T06:17:54;15.10;99.90
19496;DHT22;9888;48.606;9.630;2023-09-19T06:23:55;15.10;99.90
19496;DHT22;9888;48.606;9.630;2023-09-19T06:26:42;15.20;99.90
19496;DHT22;9888;48.606;9.630;2023-09-19T06:32:33;15.20;99.90
19496;DHT22;9888;48.606;9.630;2023-09-19T06:35:04;15.20;99.90
19496;DHT22;9888;48.606;9.630;2023-09-19T06:37:51;15.30;99.90
19496;DHT22;9888;48.606;9.630;2023-09-19T06:40:21;15.40;99.90
19496;DHT22;9888;48.606;9.630;2023-09-19T06:42:56;15.50;99.90
19496;DHT22;9888;48.606;9.630;2023-09-19T06:45:25;15.40;99.90
19496;DHT22;9888;48.606;9.630;2023-09-19T06:48:08;15.30;99.90
19496;DHT22;9888;48.606;9.630;2023-09-19T06:50:37;15.10;99.90
19496;DHT22;9888;48.606;9.630;2023-09-19T06:53:40;15.00;99.90
19496;DHT22;9888;48.606;9.630;2023-09-19T06:56:13;15.00;99.90
19496;DHT22;9888;48.606;9.630;2023-09-19T06:58:40;14.90;99.90
19496;DHT22;9888;48.606;9.630;2023-09-19T07:01:14;14.80;99.90
19496;DHT22;9888;48.606;9.630;2023-09-19T07:03:41;14.60;99.90
19496;DHT22;9888;48.606;9.630;2023-09-19T07:06:13;14.40;99.90
19496;DHT22;9888;48.606;9.630;2023-09-19T07:08:41;14.40;99.90
19496;DHT22;9888;48.606;9.630;2023-09-19T07:11:20;14.30;99.90
19496;DHT22;9888;48.606;9.630;2023-09-19T07:14:00;14.10;99.90
19496;DHT22;9888;48.606;9.630;2023-09-19T07:16:30;14.10;99.90
19496;DHT22;9888;48.606;9.630;2023-09-19T07:18:57;14.00;99.90
19496;DHT22;9888;48.606;9.630;2023-09-19T07:21:25;13.90;99.90
19496;DHT22;9888;48.606;9.630;2023-09-19T07:23:53;13.80;99.90
19496;DHT22;9888;48.606;9.630;2023-09-19T07:26:22;13.70;99.90
19496;DHT22;9888;48.606;9.630;2023-09-19T07:28:50;13.70;99.90
19496;DHT22;9888;48.606;9.630;2023-09-19T07:31:20;13.70;99.90
19496;DHT22;9888;48.606;9.630;2023-09-19T07:33:50;13.80;99.90
19496;DHT22;9888;48.606;9.630;2023-09-19T07:36:22;13.90;99.90
19496;DHT22;9888;48.606;9.630;2023-09-19T07:38:50;14.20;99.90
19496;DHT22;9888;48.606;9.630;2023-09-19T07:41:23;14.20;99.90
19496;DHT22;9888;48.606;9.630;2023-09-19T07:43:53;14.20;99.90
19496;DHT22;9888;48.606;9.630;2023-09-19T07:46:21;14.20;99.90
19496;DHT22;9888;48.606;9.630;2023-09-19T07:48:49;14.30;99.90
19496;DHT22;9888;48.606;9.630;2023-09-19T07:51:17;14.30;99.90
19496;DHT22;9888;48.606;9.630;2023-09-19T07:54:11;14.30;99.90
19496;DHT22;9888;48.606;9.630;2023-09-19T08:00:10;14.50;99.90
19496;DHT22;9888;48.606;9.630;2023-09-19T08:02:43;14.70;99.90
19496;DHT22;9888;48.606;9.630;2023-09-19T08:05:12;14.80;99.90
19496;DHT22;9888;48.606;9.630;2023-09-19T08:07:46;14.80;99.90
19496;DHT22;9888;48.606;9.630;2023-09-19T08:10:20;14.90;99.90
19496;DHT22;9888;48.606;9.630;2023-09-19T08:12:48;15.00;99.90
19496;DHT22;9888;48.606;9.630;2023-09-19T08:15:21;15.00;99.90
19496;DHT22;9888;48.606;9.630;2023-09-19T08:17:49;15.40;99.90
19496;DHT22;9888;48.606;9.630;2023-09-19T08:20:18;15.70;99.90
19496;DHT22;9888;48.606;9.630;2023-09-19T08:22:51;16.10;99.90
19496;DHT22;9888;48.606;9.630;2023-09-19T08:25:22;16.40;99.90
19496;DHT22;9888;48.606;9.630;2023-09-19T08:27:49;16.90;99.90
19496;DHT22;9888;48.606;9.630;2023-09-19T08:30:19;17.60;99.90
19496;DHT22;9888;48.606;9.630;2023-09-19T08:32:51;17.90;99.90
19496;DHT22;9888;48.606;9.630;2023-09-19T08:35:18;17.80;99.90
19496;DHT22;9888;48.606;9.630;2023-09-19T08:37:46;17.40;99.90
19496;DHT22;9888;48.606;9.630;2023-09-19T08:40:14;16.80;99.90
19496;DHT22;9888;48.606;9.630;2023-09-19T08:45:25;16.10;99.90
19496;DHT22;9888;48.606;9.630;2023-09-19T08:48:23;16.10;99.90
19496;DHT22;9888;48.606;9.630;2023-09-19T08:53:44;16.00;99.90
19496;DHT22;9888;48.606;9.630;2023-09-19T08:56:18;16.10;99.90
19496;DHT22;9888;48.606;9.630;2023-09-19T08:58:55;17.00;99.90
19496;DHT22;9888;48.606;9.630;2023-09-19T09:01:32;19.10;99.90
19496;DHT22;9888;48.606;9.630;2023-09-19T09:04:03;19.90;99.90
19496;DHT22;9888;48.606;9.630;2023-09-19T09:06:31;20.80;99.90
19496;DHT22;9888;48.606;9.630;2023-09-19T09:09:03;20.20;99.90
19496;DHT22;9888;48.606;9.630;2023-09-19T09:11:33;20.60;99.90
19496;DHT22;9888;48.606;9.630;2023-09-19T09:14:04;20.10;99.90
19496;DHT22;9888;48.606;9.630;2023-09-19T09:16:33;19.10;99.90
19496;DHT22;9888;48.606;9.630;2023-09-19T09:19:01;18.10;99.90
19496;DHT22;9888;48.606;9.630;2023-09-19T09:21:32;17.60;99.90
19496;DHT22;9888;48.606;9.630;2023-09-19T09:24:27;17.40;99.90
19496;DHT22;9888;48.606;9.630;2023-09-19T09:27:05;17.10;99.90
19496;DHT22;9888;48.606;9.630;2023-09-19T09:29:48;17.20;99.90
19496;DHT22;9888;48.606;9.630;2023-09-19T09:33:07;17.90;99.90
19496;DHT22;9888;48.606;9.630;2023-09-19T09:36:02;19.20;99.90
19496;DHT22;9888;48.606;9.630;2023-09-19T09:38:49;19.10;99.90
19496;DHT22;9888;48.606;9.630;2023-09-19T09:41:17;19.50;99.90
19496;DHT22;9888;48.606;9.630;2023-09-19T09:43:55;19.50;99.90
19496;DHT22;9888;48.606;9.630;2023-09-19T09:46:25;18.90;99.90
19496;DHT22;9888;48.606;9.630;2023-09-19T09:49:00;18.50;99.90
19496;DHT22;9888;48.606;9.630;2023-09-19T09:55:19;18.30;99.90
19496;DHT22;9888;48.606;9.630;2023-09-19T10:01:09;20.00;99.90
19496;DHT22;9888;48.606;9.630;2023-09-19T10:03:40;19.70;99.90
19496;DHT22;9888;48.606;9.630;2023-09-19T10:09:49;19.70;99.90
19496;DHT22;9888;48.606;9.630;2023-09-19T10:15:50;19.50;99.90
19496;DHT22;9888;48.606;9.630;2023-09-19T10:18:26;20.20;99.90
19496;DHT22;9888;48.606;9.630;2023-09-19T10:21:04;20.00;99.90
19496;DHT22;9888;48.606;9.630;2023-09-19T10:26:59;20.00;99.90
19496;DHT22;9888;48.606;9.630;2023-09-19T10:29:28;20.40;99.90
19496;DHT22;9888;48.606;9.630;2023-09-19T10:32:08;20.70;99.90
19496;DHT22;9888;48.606;9.630;2023-09-19T10:34:36;20.70;99.90
19496;DHT22;9888;48.606;9.630;2023-09-19T10:37:06;20.30;99.90
19496;DHT22;9888;48.606;9.630;2023-09-19T10:39:41;20.10;99.90
19496;DHT22;9888;48.606;9.630;2023-09-19T10:42:16;20.30;99.90
19496;DHT22;9888;48.606;9.630;2023-09-19T10:44:53;21.00;99.90
19496;DHT22;9888;48.606;9.630;2023-09-19T10:47:21;21.80;99.90
19496;DHT22;9888;48.606;9.630;2023-09-19T10:49:53;22.60;99.90
19496;DHT22;9888;48.606;9.630;2023-09-19T10:52:26;24.00;99.90
19496;DHT22;9888;48.606;9.630;2023-09-19T10:54:56;23.80;99.90
19496;DHT22;9888;48.606;9.630;2023-09-19T10:57:26;23.60;99.90
19496;DHT22;9888;48.606;9.630;2023-09-19T11:00:07;23.30;99.90
19496;DHT22;9888;48.606;9.630;2023-09-19T11:05:42;25.70;99.90
19496;DHT22;9888;48.606;9.630;2023-09-19T11:08:11;26.50;99.90
19496;DHT22;9888;48.606;9.630;2023-09-19T11:10:51;26.70;99.90
19496;DHT22;9888;48.606;9.630;2023-09-19T11:13:27;25.40;99.90
19496;DHT22;9888;48.606;9.630;2023-09-19T11:26:50;24.40;99.90
19496;DHT22;9888;48.606;9.630;2023-09-19T11:29:29;23.20;99.90
19496;DHT22;9888;48.606;9.630;2023-09-19T11:31:58;23.70;99.90
19496;DHT22;9888;48.606;9.630;2023-09-19T11:34:49;23.20;99.90
19496;DHT22;9888;48.606;9.630;2023-09-19T11:40:06;22.70;99.90
19496;DHT22;9888;48.606;9.630;2023-09-19T11:42:55;23.80;99.90
19496;DHT22;9888;48.606;9.630;2023-09-19T11:48:19;22.20;99.90
19496;DHT22;9888;48.606;9.630;2023-09-19T11:50:47;24.50;99.90
19496;DHT22;9888;48.606;9.630;2023-09-19T11:53:16;25.80;99.90
19496;DHT22;9888;48.606;9.630;2023-09-19T11:55:47;25.10;99.90
19496;DHT22;9888;48.606;9.630;2023-09-19T11:58:17;25.40;99.90
19496;DHT22;9888;48.606;9.630;2023-09-19T12:00:46;24.30;99.90
19496;DHT22;9888;48.606;9.630;2023-09-19T12:03:22;24.60;99.90
19496;DHT22;9888;48.606;9.630;2023-09-19T12:05:51;23.50;99.90
19496;DHT22;9888;48.606;9.630;2023-09-19T12:08:19;23.00;99.90
19496;DHT22;9888;48.606;9.630;2023-09-19T12:10:52;22.70;99.90
19496;DHT22;9888;48.606;9.630;2023-09-19T12:13:23;21.80;99.90
19496;DHT22;9888;48.606;9.630;2023-09-19T12:15:53;21.10;99.90
19496;DHT22;9888;48.606;9.630;2023-09-19T12:18:52;20.70;99.90
19496;DHT22;9888;48.606;9.630;2023-09-19T12:21:29;21.30;99.90
19496;DHT22;9888;48.606;9.630;2023-09-19T12:24:14;23.30;99.90
19496;DHT22;9888;48.606;9.630;2023-09-19T12:26:44;22.60;99.90
19496;DHT22;9888;48.606;9.630;2023-09-19T12:29:15;21.70;99.90
19496;DHT22;9888;48.606;9.630;2023-09-19T12:31:58;21.50;99.90
19496;DHT22;9888;48.606;9.630;2023-09-19T12:34:31;20.70;99.90
19496;DHT22;9888;48.606;9.630;2023-09-19T12:39:44;19.80;99.90
19496;DHT22;9888;48.606;9.630;2023-09-19T12:42:27;20.00;99.90
19496;DHT22;9888;48.606;9.630;2023-09-19T12:44:59;21.40;99.90
19496;DHT22;9888;48.606;9.630;2023-09-19T12:47:29;21.70;99.90
19496;DHT22;9888;48.606;9.630;2023-09-19T12:50:08;21.90;99.90
19496;DHT22;9888;48.606;9.630;2023-09-19T12:52:48;22.70;99.90
19496;DHT22;9888;48.606;9.630;2023-09-19T12:55:30;22.50;99.90
19496;DHT22;9888;48.606;9.630;2023-09-19T13:01:26;23.90;99.90
19496;DHT22;9888;48.606;9.630;2023-09-19T13:04:16;23.40;99.90
19496;DHT22;9888;48.606;9.630;2023-09-19T13:06:47;23.60;99.90
19496;DHT22;9888;48.606;9.630;2023-09-19T13:09:23;24.30;99.90
19496;DHT22;9888;48.606;9.630;2023-09-19T13:15:26;25.70;99.90
19496;DHT22;9888;48.606;9.630;2023-09-19T13:17:57;24.00;99.90
19496;DHT22;9888;48.606;9.630;2023-09-19T13:20:29;23.30;99.90
19496;DHT22;9888;48.606;9.630;2023-09-19T13:23:01;22.40;99.90
19496;DHT22;9888;48.606;9.630;2023-09-19T13:25:38;22.00;99.90
19496;DHT22;9888;48.606;9.630;2023-09-19T13:28:09;21.40;99.90
19496;DHT22;9888;48.606;9.630;2023-09-19T13:30:37;21.40;99.90
19496;DHT22;9888;48.606;9.630;2023-09-19T13:33:11;21.30;99.90
19496;DHT22;9888;48.606;9.630;2023-09-19T13:39:11;21.90;99.90
19496;DHT22;9888;48.606;9.630;2023-09-19T13:42:14;22.40;99.90
19496;DHT22;9888;48.606;9.630;2023-09-19T13:44:55;23.70;99.90
19496;DHT22;9888;48.606;9.630;2023-09-19T13:47:23;23.70;99.90
19496;DHT22;9888;48.606;9.630;2023-09-19T13:49:53;23.30;99.90
19496;DHT22;9888;48.606;9.630;2023-09-19T13:52:21;22.70;99.90
19496;DHT22;9888;48.606;9.630;2023-09-19T13:54:51;23.50;99.90
19496;DHT22;9888;48.606;9.630;2023-09-19T13:57:30;24.30;99.90
19496;DHT22;9888;48.606;9.630;2023-09-19T14:00:02;25.30;99.90
19496;DHT22;9888;48.606;9.630;2023-09-19T14:03:05;25.40;99.90
19496;DHT22;9888;48.606;9.630;2023-09-19T14:05:33;25.50;99.90
19496;DHT22;9888;48.606;9.630;2023-09-19T14:08:00;25.50;99.90
19496;DHT22;9888;48.606;9.630;2023-09-19T14:10:30;26.50;99.90
19496;DHT22;9888;48.606;9.630;2023-09-19T14:12:59;28.20;99.90
19496;DHT22;9888;48.606;9.630;2023-09-19T14:15:38;29.20;99.90
19496;DHT22;9888;48.606;9.630;2023-09-19T14:21:30;29.60;99.90
19496;DHT22;9888;48.606;9.630;2023-09-19T14:24:00;28.60;99.90
19496;DHT22;9888;48.606;9.630;2023-09-19T14:26:31;27.90;99.90
19496;DHT22;9888;48.606;9.630;2023-09-19T14:28:59;26.90;99.90
19496;DHT22;9888;48.606;9.630;2023-09-19T14:31:29;24.50;99.90
19496;DHT22;9888;48.606;9.630;2023-09-19T14:33:59;23.80;99.90
19496;DHT22;9888;48.606;9.630;2023-09-19T14:39:51;25.50;99.90
19496;DHT22;9888;48.606;9.630;2023-09-19T14:42:18;26.70;99.90
19496;DHT22;9888;48.606;9.630;2023-09-19T14:48:07;27.00;99.90
19496;DHT22;9888;48.606;9.630;2023-09-19T14:50:36;25.80;99.90
19496;DHT22;9888;48.606;9.630;2023-09-19T14:53:04;25.70;99.90
19496;DHT22;9888;48.606;9.630;2023-09-19T14:55:37;26.20;99.90
19496;DHT22;9888;48.606;9.630;2023-09-19T14:58:08;27.10;99.90
19496;DHT22;9888;48.606;9.630;2023-09-19T15:00:36;28.10;99.90
19496;DHT22;9888;48.606;9.630;2023-09-19T15:03:07;29.10;99.90
19496;DHT22;9888;48.606;9.630;2023-09-19T15:05:37;29.20;99.90
19496;DHT22;9888;48.606;9.630;2023-09-19T15:08:08;28.70;99.90
19496;DHT22;9888;48.606;9.630;2023-09-19T15:10:40;28.10;99.90
19496;DHT22;9888;48.606;9.630;2023-09-19T15:13:09;27.70;99.90
19496;DHT22;9888;48.606;9.630;2023-09-19T15:15:38;26.50;99.90
19496;DHT22;9888;48.606;9.630;2023-09-19T15:18:11;26.20;99.90
19496;DHT22;9888;48.606;9.630;2023-09-19T15:20:45;25.60;99.90
19496;DHT22;9888;48.606;9.630;2023-09-19T15:23:15;25.30;99.90
19496;DHT22;9888;48.606;9.630;2023-09-19T15:25:53;25.20;99.90
19496;DHT22;9888;48.606;9.630;2023-09-19T15:29:12;25.90;99.90
19496;DHT22;9888;48.606;9.630;2023-09-19T15:31:43;25.90;99.90
19496;DHT22;9888;48.606;9.630;2023-09-19T15:34:16;25.60;99.90
19496;DHT22;9888;48.606;9.630;2023-09-19T15:36:45;25.50;99.90
19496;DHT22;9888;48.606;9.630;2023-09-19T15:39:50;25.50;99.90
19496;DHT22;9888;48.606;9.630;2023-09-19T15:42:38;25.90;99.90
19496;DHT22;9888;48.606;9.630;2023-09-19T15:45:07;25.30;99.90
19496;DHT22;9888;48.606;9.630;2023-09-19T15:48:03;25.80;99.90
19496;DHT22;9888;48.606;9.630;2023-09-19T15:51:14;26.20;99.90
19496;DHT22;9888;48.606;9.630;2023-09-19T15:57:04;26.20;99.90
19496;DHT22;9888;48.606;9.630;2023-09-19T15:59:32;25.90;99.90
19496;DHT22;9888;48.606;9.630;2023-09-19T16:02:12;25.20;99.90
19496;DHT22;9888;48.606;9.630;2023-09-19T16:04:40;25.30;99.90
19496;DHT22;9888;48.606;9.630;2023-09-19T16:07:10;25.10;99.90
19496;DHT22;9888;48.606;9.630;2023-09-19T16:09:41;24.90;99.90
19496;DHT22;9888;48.606;9.630;2023-09-19T16:12:26;25.10;99.90
19496;DHT22;9888;48.606;9.630;2023-09-19T16:14:55;25.20;99.90
19496;DHT22;9888;48.606;9.630;2023-09-19T16:17:37;24.50;99.90
19496;DHT22;9888;48.606;9.630;2023-09-19T16:20:09;24.00;99.90
19496;DHT22;9888;48.606;9.630;2023-09-19T16:26:19;23.60;99.90
19496;DHT22;9888;48.606;9.630;2023-09-19T16:32:23;23.60;99.90
19496;DHT22;9888;48.606;9.630;2023-09-19T16:34:54;23.30;99.90
19496;DHT22;9888;48.606;9.630;2023-09-19T16:37:22;23.30;99.90
19496;DHT22;9888;48.606;9.630;2023-09-19T16:43:12;23.10;99.90
19496;DHT22;9888;48.606;9.630;2023-09-19T16:45:54;22.80;99.90
19496;DHT22;9888;48.606;9.630;2023-09-19T16:48:30;22.30;99.90
19496;DHT22;9888;48.606;9.630;2023-09-19T16:51:04;21.60;99.90
19496;DHT22;9888;48.606;9.630;2023-09-19T16:53:34;20.90;99.90
19496;DHT22;9888;48.606;9.630;2023-09-19T16:56:17;20.30;99.90
19496;DHT22;9888;48.606;9.630;2023-09-19T16:58:46;19.60;99.90
19496;DHT22;9888;48.606;9.630;2023-09-19T17:01:27;19.10;99.90
19496;DHT22;9888;48.606;9.630;2023-09-19T17:07:26;18.20;99.90
19496;DHT22;9888;48.606;9.630;2023-09-19T17:10:23;17.70;99.90
19496;DHT22;9888;48.606;9.630;2023-09-19T17:12:54;17.30;99.90
19496;DHT22;9888;48.606;9.630;2023-09-19T17:22:04;16.20;99.90
19496;DHT22;9888;48.606;9.630;2023-09-19T17:24:32;15.80;99.90
19496;DHT22;9888;48.606;9.630;2023-09-19T17:27:00;15.50;99.90
19496;DHT22;9888;48.606;9.630;2023-09-19T17:29:30;15.30;99.90
19496;DHT22;9888;48.606;9.630;2023-09-19T17:31:58;15.10;99.90
19496;DHT22;9888;48.606;9.630;2023-09-19T17:34:28;14.90;99.90
19496;DHT22;9888;48.606;9.630;2023-09-19T17:37:06;14.70;99.90
19496;DHT22;9888;48.606;9.630;2023-09-19T17:39:56;14.40;99.90
19496;DHT22;9888;48.606;9.630;2023-09-19T17:42:53;14.20;99.90
19496;DHT22;9888;48.606;9.630;2023-09-19T17:48:57;13.80;99.90
19496;DHT22;9888;48.606;9.630;2023-09-19T17:51:51;13.60;99.90
19496;DHT22;9888;48.606;9.630;2023-09-19T17:54:25;13.40;99.90
19496;DHT22;9888;48.606;9.630;2023-09-19T17:57:06;13.20;99.90
19496;DHT22;9888;48.606;9.630;2023-09-19T18:00:02;13.10;99.90
19496;DHT22;9888;48.606;9.630;2023-09-19T18:02:33;13.00;99.90
19496;DHT22;9888;48.606;9.630;2023-09-19T18:05:03;12.90;99.90
19496;DHT22;9888;48.606;9.630;2023-09-19T18:07:33;12.80;99.90
19496;DHT22;9888;48.606;9.630;2023-09-19T18:10:01;12.70;99.90
19496;DHT22;9888;48.606;9.630;2023-09-19T18:12:32;12.70;99.90
19496;DHT22;9888;48.606;9.630;2023-09-19T18:15:01;12.70;99.90
19496;DHT22;9888;48.606;9.630;2023-09-19T18:17:28;12.60;99.90
19496;DHT22;9888;48.606;9.630;2023-09-19T18:19:58;12.50;99.90
19496;DHT22;9888;48.606;9.630;2023-09-19T18:22:26;12.50;99.90
19496;DHT22;9888;48.606;9.630;2023-09-19T18:25:05;12.50;99.90
19496;DHT22;9888;48.606;9.630;2023-09-19T18:27:33;12.40;99.90
19496;DHT22;9888;48.606;9.630;2023-09-19T18:30:02;12.40;99.90
19496;DHT22;9888;48.606;9.630;2023-09-19T18:32:59;12.30;99.90
19496;DHT22;9888;48.606;9.630;2023-09-19T18:35:28;12.20;99.90
19496;DHT22;9888;48.606;9.630;2023-09-19T18:37:57;12.20;99.90
19496;DHT22;9888;48.606;9.630;2023-09-19T18:40:25;12.10;99.90
19496;DHT22;9888;48.606;9.630;2023-09-19T18:42:55;12.10;99.90
19496;DHT22;9888;48.606;9.630;2023-09-19T18:45:22;12.00;99.90
19496;DHT22;9888;48.606;9.630;2023-09-19T18:47:51;11.90;99.90